• Join FlightAware (Why Join?)
  • Login
  • US Flag 
03:09AM EDT


 

Airport Tracker/Info


-or-


 

Live Flight TrackerFlight Track Log ✈ N776MA ✈ 07-Jun-2013 ✈ KPWM - KMTN

Flight Track Log - Related Links

Times and Time Zones

All times are in EDT time to prevent confusion due to time zone crossing. See the N776MA flight status page for this flight to view local times or setup timezone preferences in your user account.

Time Position Orientation Groundspeed Altitude Reporting Facility
EDT Latitude Longitude Course Direction KTS MPH feet Rate Location/Type
04:13PM 43.5986 -70.2497 210° Southwest 179 206 3,500  Level Boston Center
04:14PM 43.5408 -70.2833 203° Southwest 208 239 6,600 2,940 Climbing Boston Center
04:15PM 43.4622 -70.3119 195° South 258 297 9,400 2,400 Climbing Boston Center
04:16PM 43.3917 -70.3342 193° South 288 331 11,400 2,100 Climbing Boston Center
04:17PM 43.2903 -70.3664 193° South 329 379 13,700 2,640 Climbing Boston Center
04:18PM 43.1500 -70.7052 270° West  Level FlightAware Approximate
04:18PM 43.2031 -70.3922 192° South 361 415 16,700  Level Boston Center
04:19PM 43.0730 -70.7650 210° Southwest  Level FlightAware Approximate
04:19PM 43.1103 -70.4408 201° Southwest 367 422 18,900  Level Boston Center
04:20PM 43.0456 -70.5536 232° Southwest 359 413 21,100 2,100 Climbing Boston Center
04:21PM 42.9828 -70.6692 233° Southwest 364 419 23,200 2,100 Climbing Boston Center
04:22PM 42.9156 -70.7872 232° Southwest 384 442 25,300 1,860 Climbing Boston Center
04:23PM 42.8467 -70.9108 233° Southwest 404 465 27,000 1,800 Climbing Boston Center
04:24PM 42.7794 -71.0369 234° Southwest 409 471 29,000 1,920 Climbing Boston Center
04:25PM 42.7100 -71.1572 232° Southwest 414 476 30,900 1,920 Climbing Boston Center
04:26PM 42.6406 -71.2828 233° Southwest 414 476 32,900 2,100 Climbing Boston Center
04:27PM 42.5708 -71.4056 232° Southwest 414 476 35,100 1,500 Climbing Boston Center
04:28PM 42.5031 -71.5278 233° Southwest 414 476 35,900 420 Climbing Boston Center
04:29PM 42.4308 -71.6414 229° Southwest 414 476 36,000  Climbing Boston Center
04:30PM 42.3608 -71.7603 231° Southwest 414 476 36,000  Level Boston Center
04:31PM 42.2783 -71.9014 232° Southwest 408 470 36,000  Level Boston Center
04:32PM 42.2100 -72.0197 232° Southwest 408 470 36,000  Level Boston Center
04:33PM 42.1417 -72.1378 232° Southwest 408 470 36,000  Level Boston Center
04:34PM 42.0731 -72.2556 232° Southwest 408 470 36,000  Level Boston Center
04:35PM 42.0044 -72.3731 232° Southwest 408 470 36,000  Level Boston Center
04:36PM 41.9336 -72.4903 231° Southwest 408 470 36,000  Level Boston Center
04:37PM 41.8647 -72.6072 232° Southwest 408 470 36,000  Level Boston Center
04:38PM 41.7956 -72.7269 232° Southwest 404 465 36,000  Level Boston Center
04:39PM 41.7264 -72.8406 231° Southwest 412 474 36,000 -60 Level Boston Center
04:40PM 41.6572 -72.9597 232° Southwest 412 474 35,900 -780 Descending Boston Center
04:41PM 41.5878 -73.0756 231° Southwest 412 474 34,500 -1,560 Descending Boston Center
04:42PM 41.5183 -73.1997 233° Southwest 412 474 32,800 -1,680 Descending Boston Center
04:43PM 41.4486 -73.3153 231° Southwest 407 468 31,200 -1,080 Descending Boston Center
04:45PM 41.3383 -73.5042 232° Southwest 407 468 29,900 -480 Descending New York Center
04:46PM 41.2689 -73.6253 233° Southwest 407 468 29,900  Level New York Center
04:47PM 41.1992 -73.7464 233° Southwest 407 468 29,900  Level New York Center
04:48PM 41.1314 -73.8675 233° Southwest 407 468 29,900  Level New York Center
04:49PM 41.0553 -73.9850 229° Southwest 413 475 29,900 -600 Level New York Center
04:50PM 40.9833 -74.1025 231° Southwest 413 475 28,700 -960 Descending New York Center
04:51PM 40.9094 -74.2142 229° Southwest 413 475 28,000 -360 Descending New York Center
04:52PM 40.8350 -74.3283 229° Southwest 413 475 28,000 -300 Level New York Center
04:53PM 40.7628 -74.4450 231° Southwest 418 481 27,400 -900 Descending New York Center
04:54PM 40.7022 -74.5786 239° Southwest 424 488 26,200 -1,440 Descending New York Center
04:55PM 40.6456 -74.7178 242° Southwest 429 494 24,600 -1,620 Descending New York Center
04:56PM 40.6094 -74.8633 252° West 429 494 23,100 -1,500 Descending New York Center
04:57PM 40.5650 -74.9972 246° West 420 483 21,600 -1,560 Descending New York Center
04:58PM 40.4828 -75.0878 220° Southwest 390 449 20,000 -1,320 Descending New York Center
04:59PM 40.4025 -75.1700 218° Southwest 378 435 19,000 -540 Descending New York Center
05:00PM 40.3244 -75.2519 219° Southwest 372 428 19,000  Level New York Center
05:01PM 40.2356 -75.3414 218° Southwest 367 422 19,000  Level New York Center
05:02PM 40.1658 -75.4156 219° Southwest 367 422 19,000  Level New York Center
05:03PM 40.0767 -75.5072 218° Southwest 367 422 19,000  Level New York Center
05:04PM 40.0050 -75.5836 219° Southwest 367 422 19,000 -720 Level New York Center
05:05PM 39.9178 -75.6753 219° Southwest 367 422 17,600 -1,440 Descending New York Center
05:06PM 39.8636 -75.7714 234° Southwest 367 422 16,100 -1,620 Descending New York Center
05:07PM 39.8111 -75.8786 238° Southwest 367 422 14,500 -1,320 Descending New York Center
05:09PM 39.6833 -76.1333 237° Southwest 348 400 12,000 -960 Descending Potomac TRACON
05:10PM 39.6333 -76.2333 237° Southwest 323 372 11,500 -1,080 Descending Potomac TRACON
05:11PM 39.5833 -76.3167 232° Southwest 302 348 9,900 -1,860 Descending Potomac TRACON
05:12PM 39.5500 -76.4000 243° Southwest 254 292 7,800 -2,100 Descending Potomac TRACON
05:13PM 39.5167 -76.4833 243° Southwest 259 298 5,700 -2,100 Descending Potomac TRACON
05:14PM 39.5000 -76.5667 255° West 287 330 3,900 -1,500 Descending Potomac TRACON
05:15PM 39.4333 -76.6000 201° Southwest 281 323 3,000 -480 Descending Potomac TRACON
05:16PM 39.3500 -76.5833 171° South 271 312 3,000  Level Potomac TRACON
05:17PM 39.3000 -76.5167 134° Southeast 261 300 3,000  Level Potomac TRACON
05:18PM 39.2500 -76.4667 142° Southeast 241 277 3,000  Level Potomac TRACON